New Jersey Responder — WBO8578 — position and weather

sailwx.info

Track history (hours):
 
Tides and Currents Weather Stations Pressure Air Temp Water Temp Dewpoint Dewpoint Depression Visibility Wind Speed Wind Dir Waves Ship Positions

New Jersey Responder

Owner: MARINE SPILL RESPONSE CORP, HERNDON, VA. More information available from US FCC via Universal Licensing System and Coast Guard Vessel Documentation Center.

Last reported at 2017-Aug-18 07:19 UTC. Time now 2017-Aug-19 16:42 UTC.
Position N 40°32' W 074°15'.

; draft 4 m.

Type: Pollution control. MMSI: 366594000.

Date/timePositionNaut miles runAvg speedWind from/ knotsBaromVisibWave heightAir tempDewpointWater temp
2017-Aug-18 07:19N 40°32' W 074°15'1 0.0
2017-Aug-16 17:24N 40°33' W 074°15'3 7.1
2017-Aug-16 16:59N 40°36' W 074°12'3 7.2
2017-Aug-16 16:30N 40°39' W 074°11'4 8.0
2017-Aug-16 16:00N 40°39' W 074°05'611.2
2017-Aug-16 15:30N 40°44' W 074°01'2 4.5
2017-Aug-16 15:00N 40°41' W 074°02'4 8.2
2017-Aug-16 14:31N 40°39' W 074°06'3 5.7
2017-Aug-16 14:00N 40°41' W 074°08'0 0.7
2017-Aug-16 13:30N 40°41' W 074°08'0 0.7
2017-Aug-16 13:00N 40°41' W 074°09'3 6.4
2017-Aug-16 12:30N 40°38' W 074°12'3 6.7
2017-Aug-16 12:00N 40°35' W 074°12'4 0.1
2017-Aug-15 04:55N 40°32' W 074°15'0 0.0
2017-Aug-15 04:19N 40°32' W 074°15'  
2017-Aug-12 03:31N 40°32' W 074°15'0 0.0
2017-Aug-10 12:39N 40°32' W 074°15'0 0.0
2017-Aug-10 12:30N 40°32' W 074°15'0 0.0
2017-Aug-10 12:00N 40°32' W 074°15'0 0.0
2017-Aug-10 11:30N 40°32' W 074°15'0 0.0
2017-Aug-10 10:54N 40°32' W 074°15'0 0.0
2017-Aug-10 10:24N 40°32' W 074°15'0 0.0
2017-Aug-10 09:48N 40°32' W 074°15'0 0.0
2017-Aug-10 09:24N 40°32' W 074°15'6 0.3
2017-Aug-09 15:32N 40°30' W 074°08'0 0.1
2017-Aug-09 15:30N 40°30' W 074°08'3 4.6
2017-Aug-09 14:45N 40°29' W 074°03'2 9.5
2017-Aug-09 14:30N 40°29' W 074°00'510.2
2017-Aug-09 14:00N 40°26' W 073°55'5 6.0
2017-Aug-09 13:09N 40°29' W 073°60'210.4
2017-Aug-09 13:00N 40°29' W 074°02'710.2
2017-Aug-09 12:20N 40°30' W 074°11'  
Track history (hours):
 
Tides and Currents Weather Stations Pressure Air Temp Water Temp Dewpoint Dewpoint Depression Visibility Wind Speed Wind Dir Waves Ship Positions

New Jersey Responder

Owner: MARINE SPILL RESPONSE CORP, HERNDON, VA. More information available from US FCC via Universal Licensing System and Coast Guard Vessel Documentation Center.

Last reported at 2017-Aug-18 07:19 UTC. Time now 2017-Aug-19 16:42 UTC.
Position N 40°32' W 074°15'.

; draft 4 m.

Type: Pollution control. MMSI: 366594000.

Date/timePositionNaut miles runAvg speedWind from/ knotsBaromVisibWave heightAir tempDewpointWater temp
2017-Aug-18 07:19N 40°32' W 074°15'1 0.0
2017-Aug-16 17:24N 40°33' W 074°15'3 7.1
2017-Aug-16 16:59N 40°36' W 074°12'3 7.2
2017-Aug-16 16:30N 40°39' W 074°11'4 8.0
2017-Aug-16 16:00N 40°39' W 074°05'611.2
2017-Aug-16 15:30N 40°44' W 074°01'2 4.5
2017-Aug-16 15:00N 40°41' W 074°02'4 8.2
2017-Aug-16 14:31N 40°39' W 074°06'3 5.7
2017-Aug-16 14:00N 40°41' W 074°08'0 0.7
2017-Aug-16 13:30N 40°41' W 074°08'0 0.7
2017-Aug-16 13:00N 40°41' W 074°09'3 6.4
2017-Aug-16 12:30N 40°38' W 074°12'3 6.7
2017-Aug-16 12:00N 40°35' W 074°12'4 0.1
2017-Aug-15 04:55N 40°32' W 074°15'0 0.0
2017-Aug-15 04:19N 40°32' W 074°15'  
2017-Aug-12 03:31N 40°32' W 074°15'0 0.0
2017-Aug-10 12:39N 40°32' W 074°15'0 0.0
2017-Aug-10 12:30N 40°32' W 074°15'0 0.0
2017-Aug-10 12:00N 40°32' W 074°15'0 0.0
2017-Aug-10 11:30N 40°32' W 074°15'0 0.0
2017-Aug-10 10:54N 40°32' W 074°15'0 0.0
2017-Aug-10 10:24N 40°32' W 074°15'0 0.0
2017-Aug-10 09:48N 40°32' W 074°15'0 0.0
2017-Aug-10 09:24N 40°32' W 074°15'6 0.3
2017-Aug-09 15:32N 40°30' W 074°08'0 0.1
2017-Aug-09 15:30N 40°30' W 074°08'3 4.6
2017-Aug-09 14:45N 40°29' W 074°03'2 9.5
2017-Aug-09 14:30N 40°29' W 074°00'510.2
2017-Aug-09 14:00N 40°26' W 073°55'5 6.0
2017-Aug-09 13:09N 40°29' W 073°60'210.4
2017-Aug-09 13:00N 40°29' W 074°02'710.2
2017-Aug-09 12:20N 40°30' W 074°11'  

Dump ship's entire track history